createdAt,value
2023-02-25T00:00:21.848Z,0.10
2023-02-25T00:00:45.024Z,0.10
2023-02-25T00:01:08.591Z,0.10
2023-02-25T00:01:34.759Z,0.08
2023-02-25T00:02:04.215Z,0.08
2023-02-25T00:02:27.978Z,0.07
2023-02-25T00:02:51.172Z,0.07
2023-02-25T00:03:15.798Z,0.07
2023-02-25T00:03:39.046Z,0.06
2023-02-25T00:04:02.336Z,0.05
2023-02-25T00:04:29.034Z,0.05
2023-02-25T00:05:12.304Z,0.04
2023-02-25T00:05:48.051Z,0.05
2023-02-25T00:06:13.690Z,0.05
2023-02-25T00:06:40.590Z,0.06
2023-02-25T00:07:04.176Z,0.08
2023-02-25T00:07:29.078Z,0.10
2023-02-25T00:07:54.487Z,0.11
2023-02-25T00:08:19.904Z,0.13
2023-02-25T00:08:44.532Z,0.15
2023-02-25T00:09:07.625Z,0.16
2023-02-25T00:09:30.743Z,0.17
2023-02-25T00:09:54.281Z,0.19
2023-02-25T00:10:19.216Z,0.19
2023-02-25T00:10:43.272Z,0.19
2023-02-25T00:11:06.983Z,0.19
2023-02-25T00:11:31.536Z,0.19
2023-02-25T00:11:54.648Z,0.18
2023-02-25T00:12:17.869Z,0.18
2023-02-25T00:12:41.116Z,0.17
2023-02-25T00:13:17.425Z,0.16
2023-02-25T00:13:46.731Z,0.15
2023-02-25T00:14:10.105Z,0.15
2023-02-25T00:14:36.462Z,0.14
2023-02-25T00:15:01.698Z,0.14
2023-02-25T00:15:25.328Z,0.12
2023-02-25T00:15:49.153Z,0.12
2023-02-25T00:16:13.350Z,0.12
2023-02-25T00:16:36.651Z,0.11
2023-02-25T00:16:59.981Z,0.11
2023-02-25T00:17:23.472Z,0.10
2023-02-25T00:17:49.047Z,0.10
2023-02-25T00:18:12.644Z,0.09
2023-02-25T00:18:36.067Z,0.09
2023-02-25T00:18:59.084Z,0.08
2023-02-25T00:19:22.882Z,0.08
2023-02-25T00:19:46.127Z,0.06
2023-02-25T00:20:17.113Z,0.07
2023-02-25T00:20:42.394Z,0.06
2023-02-25T00:21:09.670Z,0.05
2023-02-25T00:21:32.797Z,0.04
2023-02-25T00:21:56.017Z,0.05
2023-02-25T00:22:19.540Z,0.06
2023-02-25T00:22:42.763Z,0.06
2023-02-25T00:23:06.477Z,0.07
2023-02-25T00:23:30.113Z,0.09
2023-02-25T00:23:58.321Z,0.10
2023-02-25T00:24:23.377Z,0.12
2023-02-25T00:24:46.286Z,0.14
2023-02-25T00:25:09.932Z,0.15
2023-02-25T00:25:32.937Z,0.17
2023-02-25T00:26:00.448Z,0.18
2023-02-25T00:26:23.973Z,0.19
2023-02-25T00:26:47.449Z,0.19
2023-02-25T00:27:11.285Z,0.19
2023-02-25T00:27:35.564Z,0.19
2023-02-25T00:27:58.463Z,0.19
2023-02-25T00:28:21.527Z,0.19
2023-02-25T00:28:44.809Z,0.18
2023-02-25T00:29:07.972Z,0.18
2023-02-25T00:29:31.956Z,0.17
2023-02-25T00:29:55.177Z,0.16
2023-02-25T00:30:18.800Z,0.16
2023-02-25T00:30:47.428Z,0.15
2023-02-25T00:31:11.744Z,0.15
2023-02-25T00:31:42.360Z,0.13
2023-02-25T00:32:05.733Z,0.14
2023-02-25T00:32:30.278Z,0.13
2023-02-25T00:32:53.611Z,0.13
2023-02-25T00:33:19.716Z,0.12
2023-02-25T00:33:43.325Z,0.12
2023-02-25T00:34:06.467Z,0.12
2023-02-25T00:34:29.804Z,0.12
2023-02-25T00:34:53.121Z,0.11
2023-02-25T00:35:16.427Z,0.10
2023-02-25T00:35:40.866Z,0.10
2023-02-25T00:36:08.779Z,0.10
2023-02-25T00:36:31.821Z,0.09
2023-02-25T00:36:55.186Z,0.09
2023-02-25T00:37:19.718Z,0.10
2023-02-25T00:37:43.930Z,0.11
2023-02-25T00:38:15.737Z,0.12
2023-02-25T00:38:41.988Z,0.14
2023-02-25T00:39:05.064Z,0.16
2023-02-25T00:39:42.261Z,0.18
2023-02-25T00:40:11.000Z,0.21
2023-02-25T00:40:37.968Z,0.23
2023-02-25T00:41:04.467Z,0.24
2023-02-25T00:41:28.294Z,0.25
2023-02-25T00:41:51.295Z,0.26
2023-02-25T00:42:15.717Z,0.26
2023-02-25T00:42:38.750Z,0.26
2023-02-25T00:43:02.891Z,0.25
2023-02-25T00:43:30.900Z,0.25
2023-02-25T00:43:54.846Z,0.23
2023-02-25T00:44:18.165Z,0.22
2023-02-25T00:44:43.634Z,0.22
2023-02-25T00:45:07.154Z,0.21
2023-02-25T00:45:31.595Z,0.20
2023-02-25T00:45:54.850Z,0.19
2023-02-25T00:46:18.021Z,0.18
2023-02-25T00:46:41.470Z,0.17
2023-02-25T00:47:05.541Z,0.16
2023-02-25T00:47:28.708Z,0.16
2023-02-25T00:47:54.065Z,0.15
2023-02-25T00:48:17.096Z,0.15
2023-02-25T00:48:42.339Z,0.14
2023-02-25T00:49:05.209Z,0.13
2023-02-25T00:49:32.692Z,0.12
2023-02-25T00:49:56.304Z,0.11
2023-02-25T00:50:19.516Z,0.10
2023-02-25T00:50:45.170Z,0.10
2023-02-25T00:51:12.380Z,0.09
2023-02-25T00:51:35.449Z,0.08
2023-02-25T00:52:00.065Z,0.07
2023-02-25T00:52:23.325Z,0.07
2023-02-25T00:52:46.775Z,0.06
2023-02-25T00:53:16.027Z,0.05
2023-02-25T00:53:39.044Z,0.05
2023-02-25T00:54:02.155Z,0.05
2023-02-25T00:54:25.988Z,0.06
2023-02-25T00:54:49.401Z,0.07
2023-02-25T00:55:12.726Z,0.08
2023-02-25T00:55:37.158Z,0.09
2023-02-25T00:56:01.201Z,0.11
2023-02-25T00:56:25.569Z,0.12
2023-02-25T00:56:48.757Z,0.14
2023-02-25T00:57:12.080Z,0.15
2023-02-25T00:57:35.394Z,0.16
2023-02-25T00:58:00.766Z,0.17
2023-02-25T00:58:23.974Z,0.18
2023-02-25T00:58:49.339Z,0.19
2023-02-25T00:59:12.554Z,0.19
2023-02-25T00:59:36.078Z,0.19
2023-02-25T00:59:59.293Z,0.18
2023-02-25T01:00:22.761Z,0.17
2023-02-25T01:00:51.516Z,0.17
2023-02-25T01:01:19.504Z,0.15
2023-02-25T01:01:42.944Z,0.15
2023-02-25T01:02:06.217Z,0.15
2023-02-25T01:02:30.122Z,0.14
2023-02-25T01:02:55.562Z,0.13
2023-02-25T01:03:18.626Z,0.12
2023-02-25T01:03:41.840Z,0.12
2023-02-25T01:04:05.162Z,0.11
2023-02-25T01:04:28.378Z,0.10
2023-02-25T01:04:51.797Z,0.10
2023-02-25T01:05:15.423Z,0.10
2023-02-25T01:05:42.421Z,0.09
2023-02-25T01:06:10.243Z,0.08
2023-02-25T01:06:33.987Z,0.07
2023-02-25T01:06:58.329Z,0.06
2023-02-25T01:07:22.639Z,0.06
2023-02-25T01:07:45.974Z,0.06
2023-02-25T01:08:09.494Z,0.06
2023-02-25T01:08:32.515Z,0.05
2023-02-25T01:08:55.923Z,0.05
2023-02-25T01:09:18.862Z,0.07
2023-02-25T01:09:42.060Z,0.07
2023-02-25T01:10:05.376Z,0.09
2023-02-25T01:10:34.136Z,0.10
2023-02-25T01:10:57.733Z,0.12
2023-02-25T01:11:29.441Z,0.13
2023-02-25T01:11:53.069Z,0.15
2023-02-25T01:12:16.487Z,0.16
2023-02-25T01:12:39.912Z,0.17
2023-02-25T01:13:04.993Z,0.18
2023-02-25T01:13:28.382Z,0.19
2023-02-25T01:13:51.561Z,0.18
2023-02-25T01:14:15.944Z,0.18
2023-02-25T01:14:39.263Z,0.18
2023-02-25T01:15:02.212Z,0.17
2023-02-25T01:15:25.697Z,0.17
2023-02-25T01:15:49.000Z,0.16
2023-02-25T01:16:13.433Z,0.15
2023-02-25T01:16:37.016Z,0.14
2023-02-25T01:17:03.568Z,0.14
2023-02-25T01:17:29.140Z,0.13
2023-02-25T01:17:54.807Z,0.12
2023-02-25T01:18:22.425Z,0.11
2023-02-25T01:18:46.670Z,0.11
2023-02-25T01:19:14.705Z,0.10
2023-02-25T01:19:38.663Z,0.09
2023-02-25T01:20:05.616Z,0.08
2023-02-25T01:20:30.282Z,0.07
2023-02-25T01:20:53.379Z,0.06
2023-02-25T01:21:19.976Z,0.06
2023-02-25T01:21:44.221Z,0.06
2023-02-25T01:22:07.836Z,0.06
2023-02-25T01:22:30.795Z,0.06
2023-02-25T01:22:53.859Z,0.07
2023-02-25T01:23:23.728Z,0.09
2023-02-25T01:23:47.268Z,0.10
2023-02-25T01:24:13.837Z,0.12
2023-02-25T01:24:37.564Z,0.13
2023-02-25T01:25:00.897Z,0.14
2023-02-25T01:25:25.765Z,0.15
2023-02-25T01:25:49.380Z,0.17
2023-02-25T01:26:13.408Z,0.18
2023-02-25T01:26:37.444Z,0.19
2023-02-25T01:27:01.878Z,0.19
2023-02-25T01:27:24.893Z,0.19
2023-02-25T01:27:47.863Z,0.19
2023-02-25T01:28:11.112Z,0.19
2023-02-25T01:28:34.228Z,0.18
2023-02-25T01:28:57.267Z,0.17
2023-02-25T01:29:26.479Z,0.17
2023-02-25T01:29:49.603Z,0.16
2023-02-25T01:30:12.862Z,0.16
2023-02-25T01:30:39.246Z,0.16
2023-02-25T01:31:02.555Z,0.15
2023-02-25T01:31:29.759Z,0.15
2023-02-25T01:31:56.376Z,0.15
2023-02-25T01:32:19.744Z,0.14
2023-02-25T01:32:43.144Z,0.14
2023-02-25T01:33:06.387Z,0.14
2023-02-25T01:33:30.618Z,0.13
2023-02-25T01:33:58.174Z,0.13
2023-02-25T01:34:21.345Z,0.13
2023-02-25T01:34:45.191Z,0.11
2023-02-25T01:35:10.338Z,0.11
2023-02-25T01:35:35.598Z,0.11
2023-02-25T01:35:58.507Z,0.12
2023-02-25T01:36:21.944Z,0.12
2023-02-25T01:36:45.889Z,0.13
2023-02-25T01:37:09.285Z,0.14
2023-02-25T01:37:36.386Z,0.15
2023-02-25T01:38:00.293Z,0.18
2023-02-25T01:38:24.058Z,0.19
2023-02-25T01:38:47.165Z,0.21
2023-02-25T01:39:10.688Z,0.22
2023-02-25T01:39:34.236Z,0.23
2023-02-25T01:39:57.627Z,0.24
2023-02-25T01:40:20.848Z,0.25
2023-02-25T01:40:47.743Z,0.25
2023-02-25T01:41:10.959Z,0.25
2023-02-25T01:41:34.995Z,0.24
2023-02-25T01:41:58.823Z,0.24
2023-02-25T01:42:22.043Z,0.24
2023-02-25T01:42:45.670Z,0.23
2023-02-25T01:43:13.088Z,0.22
2023-02-25T01:43:37.831Z,0.22
2023-02-25T01:44:07.009Z,0.22
2023-02-25T01:44:33.985Z,0.20
2023-02-25T01:45:19.731Z,0.19
2023-02-25T01:45:46.314Z,0.18
2023-02-25T01:46:09.350Z,0.17
2023-02-25T01:46:32.566Z,0.16
2023-02-25T01:46:57.763Z,0.16
2023-02-25T01:47:20.990Z,0.15
2023-02-25T01:47:51.366Z,0.15
2023-02-25T01:48:18.673Z,0.16
2023-02-25T01:48:41.623Z,0.16
2023-02-25T01:49:06.535Z,0.17
2023-02-25T01:49:34.666Z,0.19
2023-02-25T01:49:57.878Z,0.21
2023-02-25T01:50:22.118Z,0.23
2023-02-25T01:50:48.813Z,0.24
2023-02-25T01:51:13.176Z,0.25
2023-02-25T01:51:36.997Z,0.26
2023-02-25T01:52:04.514Z,0.27
2023-02-25T01:52:27.611Z,0.29
2023-02-25T01:52:50.846Z,0.29
2023-02-25T01:53:14.369Z,0.30
2023-02-25T01:53:38.805Z,0.30
2023-02-25T01:54:02.947Z,0.31
2023-02-25T01:54:26.556Z,0.30
2023-02-25T01:54:54.192Z,0.31
2023-02-25T01:55:17.187Z,0.30
2023-02-25T01:55:40.712Z,0.29
2023-02-25T01:56:04.787Z,0.28
2023-02-25T01:56:27.869Z,0.28
2023-02-25T01:56:53.217Z,0.27
2023-02-25T01:57:18.935Z,0.26
2023-02-25T01:57:42.206Z,0.25
2023-02-25T01:58:05.423Z,0.24
2023-02-25T01:58:28.566Z,0.24
2023-02-25T01:58:51.672Z,0.23
2023-02-25T01:59:15.178Z,0.23
2023-02-25T01:59:39.329Z,0.23
2023-02-25T02:00:12.761Z,0.22
2023-02-25T02:00:36.593Z,0.21
2023-02-25T02:00:59.747Z,0.20
2023-02-25T02:01:26.699Z,0.20
2023-02-25T02:01:49.918Z,0.19
2023-02-25T02:02:14.503Z,0.20
2023-02-25T02:02:38.955Z,0.21
2023-02-25T02:03:02.125Z,0.22
2023-02-25T02:03:26.442Z,0.24
2023-02-25T02:03:49.987Z,0.25
2023-02-25T02:04:13.182Z,0.26
2023-02-25T02:04:36.736Z,0.27
2023-02-25T02:05:00.362Z,0.28
2023-02-25T02:05:25.518Z,0.30
2023-02-25T02:05:54.463Z,0.31
2023-02-25T02:06:28.513Z,0.32
2023-02-25T02:06:51.627Z,0.33
2023-02-25T02:07:17.510Z,0.33
2023-02-25T02:07:42.575Z,0.33
2023-02-25T02:08:07.308Z,0.33
2023-02-25T02:08:37.801Z,0.33
2023-02-25T02:09:01.927Z,0.32
2023-02-25T02:09:28.215Z,0.32
2023-02-25T02:09:57.361Z,0.31
2023-02-25T02:10:21.289Z,0.31
2023-02-25T02:10:45.219Z,0.30
2023-02-25T02:11:09.157Z,0.29
2023-02-25T02:11:33.494Z,0.29
2023-02-25T02:11:57.835Z,0.29
2023-02-25T02:12:20.843Z,0.28
2023-02-25T02:12:44.205Z,0.28
2023-02-25T02:13:07.287Z,0.28
2023-02-25T02:13:33.899Z,0.27
2023-02-25T02:13:57.292Z,0.27
2023-02-25T02:14:32.072Z,0.26
2023-02-25T02:14:55.610Z,0.26
2023-02-25T02:15:18.914Z,0.26
2023-02-25T02:15:57.682Z,0.26
2023-02-25T02:16:39.631Z,0.28
2023-02-25T02:17:08.577Z,0.30
2023-02-25T02:17:36.193Z,0.32
2023-02-25T02:18:02.760Z,0.34
2023-02-25T02:18:28.124Z,0.35
2023-02-25T02:18:54.207Z,0.36
2023-02-25T02:19:23.176Z,0.36
2023-02-25T02:19:53.501Z,0.37
2023-02-25T02:20:20.935Z,0.37
2023-02-25T02:20:55.345Z,0.37
2023-02-25T02:21:36.810Z,0.36
2023-02-25T02:22:02.903Z,0.35
2023-02-25T02:22:28.361Z,0.34
2023-02-25T02:22:51.472Z,0.33
2023-02-25T02:23:14.916Z,0.32
2023-02-25T02:23:52.224Z,0.32
2023-02-25T02:24:31.189Z,0.31
2023-02-25T02:25:13.124Z,0.30
2023-02-25T02:25:54.961Z,0.30
2023-02-25T02:26:31.559Z,0.28
2023-02-25T02:27:04.704Z,0.28
2023-02-25T02:27:39.698Z,0.26
2023-02-25T02:28:05.372Z,0.26
2023-02-25T02:28:47.421Z,0.25
2023-02-25T02:29:15.391Z,0.26
2023-02-25T02:29:38.626Z,0.26
2023-02-25T02:30:07.879Z,0.27
2023-02-25T02:30:35.881Z,0.29
2023-02-25T02:31:13.104Z,0.31
2023-02-25T02:31:48.826Z,0.32
2023-02-25T02:32:41.249Z,0.33
2023-02-25T02:33:10.331Z,0.35
2023-02-25T02:33:36.827Z,0.35
2023-02-25T02:33:59.936Z,0.36
2023-02-25T02:34:23.260Z,0.36
2023-02-25T02:34:46.989Z,0.36
2023-02-25T02:35:32.616Z,0.35
2023-02-25T02:36:01.967Z,0.34
2023-02-25T02:36:29.680Z,0.34
2023-02-25T02:36:56.690Z,0.34
2023-02-25T02:37:25.104Z,0.32
2023-02-25T02:37:48.521Z,0.32
2023-02-25T02:38:16.957Z,0.31
2023-02-25T02:38:40.128Z,0.30
2023-02-25T02:39:09.046Z,0.29
2023-02-25T02:39:35.373Z,0.29
2023-02-25T02:40:09.760Z,0.28
2023-02-25T02:40:33.287Z,0.28
2023-02-25T02:40:57.022Z,0.27
2023-02-25T02:41:28.941Z,0.28
2023-02-25T02:41:58.174Z,0.29
2023-02-25T02:42:30.907Z,0.29
2023-02-25T02:43:05.981Z,0.31
2023-02-25T02:43:36.129Z,0.33
2023-02-25T02:44:08.266Z,0.35
2023-02-25T02:44:33.323Z,0.36
2023-02-25T02:44:56.743Z,0.37
2023-02-25T02:45:23.032Z,0.38
2023-02-25T02:45:49.858Z,0.39
2023-02-25T02:46:23.190Z,0.39
2023-02-25T02:46:46.788Z,0.39
2023-02-25T02:47:11.439Z,0.39
2023-02-25T02:47:38.340Z,0.39
2023-02-25T02:48:06.204Z,0.38
2023-02-25T02:48:46.134Z,0.38
2023-02-25T02:49:11.303Z,0.37
2023-02-25T02:49:48.542Z,0.37
2023-02-25T02:50:24.124Z,0.35
2023-02-25T02:50:48.361Z,0.34
2023-02-25T02:51:15.055Z,0.34
2023-02-25T02:51:41.338Z,0.32
2023-02-25T02:52:05.906Z,0.32
2023-02-25T02:52:29.713Z,0.32
2023-02-25T02:52:53.055Z,0.31
2023-02-25T02:53:21.668Z,0.32
2023-02-25T02:53:47.856Z,0.32
2023-02-25T02:54:11.578Z,0.33
2023-02-25T02:54:35.919Z,0.34
2023-02-25T02:55:35.041Z,0.35
2023-02-25T02:56:01.934Z,0.39
2023-02-25T02:56:25.664Z,0.41
2023-02-25T02:56:48.701Z,0.42
2023-02-25T02:57:12.705Z,0.43
2023-02-25T02:57:38.311Z,0.44
2023-02-25T02:58:03.767Z,0.45
2023-02-25T02:58:31.968Z,0.45
2023-02-25T02:59:05.604Z,0.45
2023-02-25T02:59:43.224Z,0.44
2023-02-25T03:00:13.959Z,0.44
2023-02-25T03:00:40.549Z,0.42
2023-02-25T03:01:17.494Z,0.42
2023-02-25T03:01:43.732Z,0.41
2023-02-25T03:02:11.283Z,0.40
2023-02-25T03:02:35.384Z,0.39
2023-02-25T03:03:08.621Z,0.38
2023-02-25T03:03:38.473Z,0.37
2023-02-25T03:04:03.094Z,0.36
2023-02-25T03:04:28.191Z,0.35
2023-02-25T03:04:52.020Z,0.35
2023-02-25T03:05:17.186Z,0.34
2023-02-25T03:05:42.952Z,0.35
2023-02-25T03:06:08.529Z,0.35
2023-02-25T03:06:42.997Z,0.35
2023-02-25T03:07:07.635Z,0.37
2023-02-25T03:07:31.372Z,0.38
2023-02-25T03:08:14.764Z,0.40
2023-02-25T03:08:58.193Z,0.42
2023-02-25T03:09:22.750Z,0.44
2023-02-25T03:09:55.467Z,0.46
2023-02-25T03:10:20.422Z,0.47
2023-02-25T03:10:49.062Z,0.46
2023-02-25T03:11:12.386Z,0.47
2023-02-25T03:11:36.165Z,0.46
2023-02-25T03:11:59.182Z,0.45
2023-02-25T03:12:23.056Z,0.44
2023-02-25T03:12:46.572Z,0.44
2023-02-25T03:13:10.566Z,0.43
2023-02-25T03:13:34.644Z,0.42
2023-02-25T03:13:57.755Z,0.41
2023-02-25T03:14:21.393Z,0.41
2023-02-25T03:14:44.597Z,0.40
2023-02-25T03:15:09.245Z,0.38
2023-02-25T03:15:32.569Z,0.38
2023-02-25T03:15:55.682Z,0.37
2023-02-25T03:16:23.263Z,0.37
2023-02-25T03:16:51.062Z,0.36
2023-02-25T03:17:15.666Z,0.36
2023-02-25T03:17:49.919Z,0.35
2023-02-25T03:18:21.688Z,0.35
2023-02-25T03:18:47.908Z,0.36
2023-02-25T03:19:12.458Z,0.37
2023-02-25T03:19:55.819Z,0.38
2023-02-25T03:20:25.174Z,0.40
2023-02-25T03:20:49.617Z,0.43
2023-02-25T03:21:18.264Z,0.43
2023-02-25T03:21:42.594Z,0.45
2023-02-25T03:22:09.902Z,0.47
2023-02-25T03:22:36.180Z,0.48
2023-02-25T03:22:59.624Z,0.48
2023-02-25T03:23:24.480Z,0.49
2023-02-25T03:23:47.888Z,0.50
2023-02-25T03:24:13.995Z,0.49
2023-02-25T03:24:42.404Z,0.49
2023-02-25T03:25:21.781Z,0.49
2023-02-25T03:25:50.613Z,0.48
2023-02-25T03:26:26.979Z,0.47
2023-02-25T03:26:53.207Z,0.46
2023-02-25T03:27:37.403Z,0.46
2023-02-25T03:28:06.124Z,0.45
2023-02-25T03:28:32.932Z,0.44
2023-02-25T03:28:56.039Z,0.43
2023-02-25T03:29:19.901Z,0.42
2023-02-25T03:29:43.198Z,0.42
2023-02-25T03:30:12.748Z,0.41
2023-02-25T03:30:37.740Z,0.40
2023-02-25T03:31:08.434Z,0.41
2023-02-25T03:31:36.679Z,0.40
2023-02-25T03:32:04.565Z,0.40
2023-02-25T03:32:28.053Z,0.41
2023-02-25T03:32:53.495Z,0.42
2023-02-25T03:33:19.298Z,0.43
2023-02-25T03:33:48.570Z,0.44
2023-02-25T03:34:12.413Z,0.46
2023-02-25T03:34:40.912Z,0.47
2023-02-25T03:35:04.453Z,0.48
2023-02-25T03:35:27.556Z,0.50
2023-02-25T03:35:51.072Z,0.50
2023-02-25T03:36:18.615Z,0.51
2023-02-25T03:36:42.627Z,0.51
2023-02-25T03:37:06.950Z,0.51
2023-02-25T03:37:30.895Z,0.50
2023-02-25T03:37:55.757Z,0.51
2023-02-25T03:38:21.206Z,0.50
2023-02-25T03:38:47.084Z,0.49
2023-02-25T03:39:12.932Z,0.49
2023-02-25T03:39:38.835Z,0.48
2023-02-25T03:40:03.196Z,0.48
2023-02-25T03:40:26.396Z,0.47
2023-02-25T03:40:49.633Z,0.47
2023-02-25T03:41:12.930Z,0.46
2023-02-25T03:41:37.695Z,0.45
2023-02-25T03:42:01.934Z,0.45
2023-02-25T03:42:30.801Z,0.44
2023-02-25T03:42:59.090Z,0.43
2023-02-25T03:43:32.235Z,0.44
2023-02-25T03:43:56.570Z,0.45
2023-02-25T03:44:21.321Z,0.45
2023-02-25T03:44:46.275Z,0.46
2023-02-25T03:45:09.490Z,0.47
2023-02-25T03:45:34.662Z,0.48
2023-02-25T03:45:57.942Z,0.49
2023-02-25T03:46:22.518Z,0.50
2023-02-25T03:46:47.388Z,0.51
2023-02-25T03:47:10.992Z,0.52
2023-02-25T03:47:35.254Z,0.52
2023-02-25T03:47:58.354Z,0.53
2023-02-25T03:48:21.359Z,0.53
2023-02-25T03:48:45.335Z,0.53
2023-02-25T03:49:08.609Z,0.53
2023-02-25T03:49:35.766Z,0.54
2023-02-25T03:50:08.545Z,0.53
2023-02-25T03:50:34.012Z,0.52
2023-02-25T03:51:19.417Z,0.51
2023-02-25T03:51:43.045Z,0.51
2023-02-25T03:52:06.597Z,0.50
2023-02-25T03:52:31.727Z,0.49
2023-02-25T03:52:59.850Z,0.49
2023-02-25T03:53:43.625Z,0.48
2023-02-25T03:54:16.784Z,0.47
2023-02-25T03:54:41.453Z,0.47
2023-02-25T03:55:05.630Z,0.46
2023-02-25T03:55:29.627Z,0.46
2023-02-25T03:55:53.204Z,0.47
2023-02-25T03:56:17.074Z,0.47
2023-02-25T03:56:41.889Z,0.48
2023-02-25T03:57:04.899Z,0.49
2023-02-25T03:57:35.072Z,0.50
2023-02-25T03:57:58.081Z,0.52
2023-02-25T03:58:21.200Z,0.53
2023-02-25T03:58:47.887Z,0.55
2023-02-25T03:59:11.106Z,0.56
2023-02-25T03:59:34.582Z,0.57
2023-02-25T03:59:57.949Z,0.58
2023-02-25T04:00:23.015Z,0.59
2023-02-25T04:00:47.245Z,0.61
2023-02-25T04:01:17.350Z,0.61
2023-02-25T04:01:41.059Z,0.61
2023-02-25T04:02:04.176Z,0.59
2023-02-25T04:02:31.170Z,0.60
2023-02-25T04:02:54.368Z,0.59
2023-02-25T04:03:17.470Z,0.59
2023-02-25T04:03:41.108Z,0.58
2023-02-25T04:04:09.317Z,0.57
2023-02-25T04:04:33.031Z,0.57
2023-02-25T04:04:58.084Z,0.55
2023-02-25T04:05:22.259Z,0.55
2023-02-25T04:05:46.395Z,0.54
2023-02-25T04:06:11.782Z,0.53
2023-02-25T04:06:34.773Z,0.52
2023-02-25T04:06:58.497Z,0.52
2023-02-25T04:07:21.629Z,0.51
2023-02-25T04:07:44.552Z,0.51
2023-02-25T04:08:16.121Z,0.50
2023-02-25T04:08:41.492Z,0.51
2023-02-25T04:09:05.827Z,0.52
2023-02-25T04:09:28.844Z,0.52
2023-02-25T04:09:51.972Z,0.54
2023-02-25T04:10:15.591Z,0.55
2023-02-25T04:10:43.708Z,0.57
2023-02-25T04:11:12.660Z,0.58
2023-02-25T04:11:37.603Z,0.59
2023-02-25T04:12:00.726Z,0.61
2023-02-25T04:12:23.933Z,0.62
2023-02-25T04:12:47.158Z,0.63
2023-02-25T04:13:13.861Z,0.64
2023-02-25T04:13:36.834Z,0.64
2023-02-25T04:14:00.484Z,0.64
2023-02-25T04:14:25.333Z,0.64
2023-02-25T04:14:49.792Z,0.63
2023-02-25T04:15:14.568Z,0.63
2023-02-25T04:15:39.802Z,0.62
2023-02-25T04:16:03.892Z,0.61
2023-02-25T04:16:28.583Z,0.61
2023-02-25T04:16:55.602Z,0.59
2023-02-25T04:17:19.526Z,0.59
2023-02-25T04:17:46.941Z,0.57
2023-02-25T04:18:13.404Z,0.57
2023-02-25T04:18:36.700Z,0.56
2023-02-25T04:19:00.962Z,0.56
2023-02-25T04:19:25.918Z,0.55
2023-02-25T04:19:48.946Z,0.54
2023-02-25T04:20:16.463Z,0.54
2023-02-25T04:20:41.088Z,0.54
2023-02-25T04:21:05.971Z,0.54
2023-02-25T04:21:29.953Z,0.54
2023-02-25T04:21:52.991Z,0.55
2023-02-25T04:22:16.210Z,0.56
2023-02-25T04:22:39.147Z,0.57
2023-02-25T04:23:05.093Z,0.57
2023-02-25T04:23:28.203Z,0.59
2023-02-25T04:23:51.318Z,0.60
2023-02-25T04:24:14.441Z,0.61
2023-02-25T04:24:38.467Z,0.62
2023-02-25T04:25:01.499Z,0.63
2023-02-25T04:25:27.057Z,0.64
2023-02-25T04:25:50.014Z,0.65
2023-02-25T04:26:13.693Z,0.66
2023-02-25T04:26:38.389Z,0.66
2023-02-25T04:27:02.605Z,0.66
2023-02-25T04:27:28.246Z,0.67
2023-02-25T04:27:51.255Z,0.67
2023-02-25T04:28:14.577Z,0.66
2023-02-25T04:28:38.200Z,0.66
2023-02-25T04:29:01.519Z,0.66
2023-02-25T04:29:25.465Z,0.65
2023-02-25T04:29:48.675Z,0.65
2023-02-25T04:30:13.009Z,0.64
2023-02-25T04:30:36.842Z,0.63
2023-02-25T04:31:00.463Z,0.62
2023-02-25T04:31:23.835Z,0.62
2023-02-25T04:31:47.224Z,0.62
2023-02-25T04:32:10.756Z,0.60
2023-02-25T04:32:34.018Z,0.59
2023-02-25T04:32:57.262Z,0.58
2023-02-25T04:33:23.753Z,0.58
2023-02-25T04:33:50.224Z,0.58
2023-02-25T04:34:13.252Z,0.58
2023-02-25T04:34:36.771Z,0.58
2023-02-25T04:35:03.291Z,0.58
2023-02-25T04:35:26.480Z,0.59
2023-02-25T04:35:50.720Z,0.61
2023-02-25T04:36:25.198Z,0.61
2023-02-25T04:36:48.605Z,0.63
2023-02-25T04:37:11.736Z,0.63
2023-02-25T04:37:34.734Z,0.65
2023-02-25T04:37:57.772Z,0.66
2023-02-25T04:38:21.684Z,0.66
2023-02-25T04:38:46.128Z,0.67
2023-02-25T04:39:10.161Z,0.68
2023-02-25T04:39:33.231Z,0.69
2023-02-25T04:39:56.205Z,0.69
2023-02-25T04:40:19.812Z,0.69
2023-02-25T04:40:46.498Z,0.68
2023-02-25T04:41:10.855Z,0.68
2023-02-25T04:41:35.188Z,0.67
2023-02-25T04:42:02.185Z,0.67
2023-02-25T04:42:29.595Z,0.66
2023-02-25T04:42:58.130Z,0.65
2023-02-25T04:43:23.284Z,0.64
2023-02-25T04:43:47.931Z,0.63
2023-02-25T04:44:11.049Z,0.63
2023-02-25T04:44:33.978Z,0.62
2023-02-25T04:44:57.694Z,0.61
2023-02-25T04:45:27.015Z,0.61
2023-02-25T04:45:50.667Z,0.60
2023-02-25T04:46:14.315Z,0.59
2023-02-25T04:46:38.838Z,0.59
2023-02-25T04:47:01.892Z,0.59
2023-02-25T04:47:25.267Z,0.59
2023-02-25T04:47:48.290Z,0.61
2023-02-25T04:48:12.018Z,0.61
2023-02-25T04:48:35.029Z,0.61
2023-02-25T04:48:58.130Z,0.63
2023-02-25T04:49:24.029Z,0.64
2023-02-25T04:49:47.427Z,0.65
2023-02-25T04:50:11.076Z,0.65
2023-02-25T04:50:34.785Z,0.66
2023-02-25T04:51:01.586Z,0.67
2023-02-25T04:51:25.827Z,0.69
2023-02-25T04:51:49.749Z,0.69
2023-02-25T04:52:13.377Z,0.70
2023-02-25T04:52:36.699Z,0.71
2023-02-25T04:53:02.386Z,0.70
2023-02-25T04:53:25.476Z,0.70
2023-02-25T04:53:48.506Z,0.70
2023-02-25T04:54:11.604Z,0.70
2023-02-25T04:54:34.821Z,0.70
2023-02-25T04:54:59.160Z,0.69
2023-02-25T04:55:22.299Z,0.69
2023-02-25T04:55:45.491Z,0.69
2023-02-25T04:56:09.020Z,0.68
2023-02-25T04:56:32.842Z,0.67
2023-02-25T04:56:56.487Z,0.66
2023-02-25T04:57:20.627Z,0.66
2023-02-25T04:57:43.935Z,0.66
2023-02-25T04:58:07.139Z,0.65
2023-02-25T04:58:31.081Z,0.65
2023-02-25T04:58:54.210Z,0.64
2023-02-25T04:59:17.300Z,0.64
2023-02-25T04:59:40.826Z,0.65
2023-02-25T05:00:08.548Z,0.66
2023-02-25T05:00:33.195Z,0.67
2023-02-25T05:00:58.146Z,0.65
2023-02-25T05:01:21.258Z,0.69
2023-02-25T05:01:44.414Z,0.70
2023-02-25T05:02:08.575Z,0.71
2023-02-25T05:02:32.748Z,0.73
2023-02-25T05:02:56.170Z,0.74
2023-02-25T05:03:19.289Z,0.74
2023-02-25T05:03:42.602Z,0.75
2023-02-25T05:04:05.715Z,0.75
2023-02-25T05:04:29.003Z,0.76
2023-02-25T05:04:52.485Z,0.77
2023-02-25T05:05:15.893Z,0.77
2023-02-25T05:05:39.097Z,0.77
2023-02-25T05:06:03.949Z,0.78
2023-02-25T05:06:30.844Z,0.77
2023-02-25T05:06:54.996Z,0.77
2023-02-25T05:07:18.096Z,0.77
2023-02-25T05:07:41.249Z,0.76
2023-02-25T05:08:05.756Z,0.76
2023-02-25T05:08:31.017Z,0.74
2023-02-25T05:08:54.949Z,0.74
2023-02-25T05:09:17.961Z,0.73
2023-02-25T05:09:41.696Z,0.73
2023-02-25T05:10:05.725Z,0.73
2023-02-25T05:10:29.046Z,0.72
2023-02-25T05:10:52.090Z,0.72
2023-02-25T05:11:15.171Z,0.72
2023-02-25T05:11:38.626Z,0.72
2023-02-25T05:12:02.137Z,0.73
2023-02-25T05:12:25.377Z,0.74
2023-02-25T05:12:48.443Z,0.74
2023-02-25T05:13:15.887Z,0.75
2023-02-25T05:13:40.193Z,0.75
2023-02-25T05:14:04.043Z,0.76
2023-02-25T05:14:28.211Z,0.77
2023-02-25T05:14:51.275Z,0.78
2023-02-25T05:15:15.002Z,0.78
2023-02-25T05:15:42.310Z,0.80
2023-02-25T05:16:10.177Z,0.80
2023-02-25T05:16:34.112Z,0.81
2023-02-25T05:16:57.485Z,0.82
2023-02-25T05:17:20.526Z,0.82
2023-02-25T05:17:43.560Z,0.83
2023-02-25T05:18:07.250Z,0.83
2023-02-25T05:18:30.249Z,0.83
2023-02-25T05:18:53.461Z,0.83
2023-02-25T05:19:17.296Z,0.83
2023-02-25T05:19:40.304Z,0.83
2023-02-25T05:20:07.260Z,0.82
2023-02-25T05:20:31.188Z,0.82
2023-02-25T05:20:54.760Z,0.81
2023-02-25T05:21:18.976Z,0.81
2023-02-25T05:21:42.014Z,0.81
2023-02-25T05:22:05.332Z,0.81
2023-02-25T05:22:28.344Z,0.79
2023-02-25T05:22:51.267Z,0.80
2023-02-25T05:23:14.797Z,0.79
2023-02-25T05:23:41.669Z,0.79
2023-02-25T05:24:05.295Z,0.79
2023-02-25T05:24:28.307Z,0.79
2023-02-25T05:24:51.287Z,0.79
2023-02-25T05:25:17.194Z,0.81
2023-02-25T05:25:43.891Z,0.81
2023-02-25T05:26:06.883Z,0.82
2023-02-25T05:26:31.165Z,0.82
2023-02-25T05:26:54.465Z,0.83
2023-02-25T05:27:17.784Z,0.84
2023-02-25T05:27:41.099Z,0.86
2023-02-25T05:28:05.946Z,0.86
2023-02-25T05:28:30.802Z,0.87
2023-02-25T05:28:54.626Z,0.88
2023-02-25T05:29:18.016Z,0.89
2023-02-25T05:29:41.204Z,0.90
2023-02-25T05:30:04.843Z,0.91
2023-02-25T05:30:28.426Z,0.93
2023-02-25T05:30:53.739Z,0.93
2023-02-25T05:31:16.899Z,0.94
2023-02-25T05:31:40.303Z,0.94
2023-02-25T05:32:03.952Z,0.94
2023-02-25T05:32:27.662Z,0.94
2023-02-25T05:32:50.830Z,0.94
2023-02-25T05:33:14.002Z,0.94
2023-02-25T05:33:37.848Z,0.94
2023-02-25T05:34:00.978Z,0.93
2023-02-25T05:34:24.672Z,0.93
2023-02-25T05:34:47.566Z,0.92
2023-02-25T05:35:11.106Z,0.92
2023-02-25T05:35:34.113Z,0.92
2023-02-25T05:35:57.440Z,0.91
2023-02-25T05:36:20.645Z,0.91
2023-02-25T05:36:44.379Z,0.90
2023-02-25T05:37:08.194Z,0.90
2023-02-25T05:37:31.939Z,0.90
2023-02-25T05:37:55.975Z,0.91
2023-02-25T05:38:19.083Z,0.91
2023-02-25T05:38:42.401Z,0.91
2023-02-25T05:39:06.744Z,0.92
2023-02-25T05:39:30.164Z,0.94
2023-02-25T05:39:53.399Z,0.94